sensor_id;sensor_type;location;lat;lon;timestamp;P1;durP1;ratioP1;P2;durP2;ratioP2
73150;SDS011;61354;50.758;6.106;2023-05-07T00:01:44;2.58;;;1.90;;
73150;SDS011;61354;50.758;6.106;2023-05-07T00:04:10;2.80;;;1.80;;
73150;SDS011;61354;50.758;6.106;2023-05-07T00:06:36;2.53;;;1.73;;
73150;SDS011;61354;50.758;6.106;2023-05-07T00:09:01;3.90;;;1.70;;
73150;SDS011;61354;50.758;6.106;2023-05-07T00:11:28;2.95;;;1.70;;
73150;SDS011;61354;50.758;6.106;2023-05-07T00:13:54;2.90;;;1.90;;
73150;SDS011;61354;50.758;6.106;2023-05-07T00:16:19;2.88;;;1.63;;
73150;SDS011;61354;50.758;6.106;2023-05-07T00:18:45;3.38;;;1.77;;
73150;SDS011;61354;50.758;6.106;2023-05-07T00:21:11;2.47;;;1.77;;
73150;SDS011;61354;50.758;6.106;2023-05-07T00:23:36;3.70;;;1.77;;
73150;SDS011;61354;50.758;6.106;2023-05-07T00:26:02;2.70;;;1.63;;
73150;SDS011;61354;50.758;6.106;2023-05-07T00:28:29;2.50;;;1.42;;
73150;SDS011;61354;50.758;6.106;2023-05-07T00:30:54;4.10;;;1.65;;
73150;SDS011;61354;50.758;6.106;2023-05-07T00:33:20;2.88;;;1.55;;
73150;SDS011;61354;50.758;6.106;2023-05-07T00:35:46;3.92;;;1.40;;
73150;SDS011;61354;50.758;6.106;2023-05-07T00:38:11;2.42;;;1.67;;
73150;SDS011;61354;50.758;6.106;2023-05-07T00:40:37;2.50;;;1.40;;
73150;SDS011;61354;50.758;6.106;2023-05-07T00:43:03;3.95;;;1.58;;
73150;SDS011;61354;50.758;6.106;2023-05-07T00:45:28;3.55;;;1.50;;
73150;SDS011;61354;50.758;6.106;2023-05-07T00:47:57;3.22;;;1.65;;
73150;SDS011;61354;50.758;6.106;2023-05-07T00:50:26;4.22;;;1.70;;
73150;SDS011;61354;50.758;6.106;2023-05-07T00:52:52;2.65;;;1.50;;
73150;SDS011;61354;50.758;6.106;2023-05-07T00:55:18;2.67;;;1.70;;
73150;SDS011;61354;50.758;6.106;2023-05-07T00:57:43;4.15;;;1.60;;
73150;SDS011;61354;50.758;6.106;2023-05-07T01:00:10;2.50;;;1.40;;
73150;SDS011;61354;50.758;6.106;2023-05-07T01:02:40;2.72;;;1.80;;
73150;SDS011;61354;50.758;6.106;2023-05-07T01:05:17;3.45;;;1.75;;
73150;SDS011;61354;50.758;6.106;2023-05-07T01:07:45;3.28;;;2.00;;
73150;SDS011;61354;50.758;6.106;2023-05-07T01:10:12;3.15;;;1.85;;
73150;SDS011;61354;50.758;6.106;2023-05-07T01:12:38;2.65;;;1.75;;
73150;SDS011;61354;50.758;6.106;2023-05-07T01:15:05;3.58;;;2.03;;
73150;SDS011;61354;50.758;6.106;2023-05-07T01:17:33;4.13;;;1.92;;
73150;SDS011;61354;50.758;6.106;2023-05-07T01:20:00;3.10;;;1.88;;
73150;SDS011;61354;50.758;6.106;2023-05-07T01:22:30;3.75;;;2.20;;
73150;SDS011;61354;50.758;6.106;2023-05-07T01:24:57;3.22;;;2.00;;
73150;SDS011;61354;50.758;6.106;2023-05-07T01:27:25;3.55;;;2.03;;
73150;SDS011;61354;50.758;6.106;2023-05-07T01:29:51;4.43;;;1.90;;
73150;SDS011;61354;50.758;6.106;2023-05-07T01:32:17;4.10;;;1.92;;
73150;SDS011;61354;50.758;6.106;2023-05-07T01:34:46;5.03;;;2.33;;
73150;SDS011;61354;50.758;6.106;2023-05-07T01:37:15;3.42;;;2.00;;
73150;SDS011;61354;50.758;6.106;2023-05-07T01:39:41;3.40;;;1.73;;
73150;SDS011;61354;50.758;6.106;2023-05-07T01:42:08;3.58;;;1.90;;
73150;SDS011;61354;50.758;6.106;2023-05-07T01:44:34;3.22;;;1.77;;
73150;SDS011;61354;50.758;6.106;2023-05-07T01:46:59;7.05;;;2.30;;
73150;SDS011;61354;50.758;6.106;2023-05-07T01:49:26;2.97;;;1.60;;
73150;SDS011;61354;50.758;6.106;2023-05-07T01:51:52;3.70;;;1.83;;
73150;SDS011;61354;50.758;6.106;2023-05-07T01:54:18;3.35;;;1.63;;
73150;SDS011;61354;50.758;6.106;2023-05-07T01:56:43;2.30;;;1.50;;
73150;SDS011;61354;50.758;6.106;2023-05-07T01:59:09;4.07;;;1.70;;
73150;SDS011;61354;50.758;6.106;2023-05-07T02:01:34;2.55;;;1.52;;
73150;SDS011;61354;50.758;6.106;2023-05-07T02:04:00;4.38;;;2.10;;
73150;SDS011;61354;50.758;6.106;2023-05-07T02:06:25;4.30;;;1.98;;
73150;SDS011;61354;50.758;6.106;2023-05-07T02:08:51;3.13;;;1.73;;
73150;SDS011;61354;50.758;6.106;2023-05-07T02:11:17;3.00;;;1.67;;
73150;SDS011;61354;50.758;6.106;2023-05-07T02:13:42;3.00;;;1.75;;
73150;SDS011;61354;50.758;6.106;2023-05-07T02:16:08;3.78;;;1.70;;
73150;SDS011;61354;50.758;6.106;2023-05-07T02:18:33;2.72;;;1.80;;
73150;SDS011;61354;50.758;6.106;2023-05-07T02:20:59;2.90;;;1.92;;
73150;SDS011;61354;50.758;6.106;2023-05-07T02:23:24;2.75;;;1.70;;
73150;SDS011;61354;50.758;6.106;2023-05-07T02:25:50;4.38;;;1.58;;
73150;SDS011;61354;50.758;6.106;2023-05-07T02:28:16;3.03;;;1.90;;
73150;SDS011;61354;50.758;6.106;2023-05-07T02:30:41;3.35;;;1.55;;
73150;SDS011;61354;50.758;6.106;2023-05-07T02:33:07;2.97;;;1.77;;
73150;SDS011;61354;50.758;6.106;2023-05-07T02:35:33;3.00;;;1.65;;
73150;SDS011;61354;50.758;6.106;2023-05-07T02:37:59;2.08;;;1.52;;
73150;SDS011;61354;50.758;6.106;2023-05-07T02:40:25;2.90;;;1.52;;
73150;SDS011;61354;50.758;6.106;2023-05-07T02:42:50;2.70;;;1.55;;
73150;SDS011;61354;50.758;6.106;2023-05-07T02:45:16;3.80;;;1.70;;
73150;SDS011;61354;50.758;6.106;2023-05-07T02:47:41;2.55;;;1.60;;
73150;SDS011;61354;50.758;6.106;2023-05-07T02:50:07;3.78;;;1.90;;
73150;SDS011;61354;50.758;6.106;2023-05-07T02:52:33;3.45;;;1.60;;
73150;SDS011;61354;50.758;6.106;2023-05-07T02:54:58;2.45;;;1.55;;
73150;SDS011;61354;50.758;6.106;2023-05-07T02:57:24;3.90;;;1.60;;
73150;SDS011;61354;50.758;6.106;2023-05-07T02:59:49;2.65;;;1.45;;
73150;SDS011;61354;50.758;6.106;2023-05-07T03:02:15;2.33;;;1.50;;
73150;SDS011;61354;50.758;6.106;2023-05-07T03:04:41;2.72;;;1.40;;
73150;SDS011;61354;50.758;6.106;2023-05-07T03:07:07;2.70;;;1.60;;
73150;SDS011;61354;50.758;6.106;2023-05-07T03:09:32;2.58;;;1.50;;
73150;SDS011;61354;50.758;6.106;2023-05-07T03:11:58;2.95;;;1.60;;
73150;SDS011;61354;50.758;6.106;2023-05-07T03:14:24;2.58;;;1.63;;
73150;SDS011;61354;50.758;6.106;2023-05-07T03:16:49;2.92;;;1.63;;
73150;SDS011;61354;50.758;6.106;2023-05-07T03:19:15;3.70;;;1.70;;
73150;SDS011;61354;50.758;6.106;2023-05-07T03:21:41;4.13;;;1.73;;
73150;SDS011;61354;50.758;6.106;2023-05-07T03:24:06;3.50;;;1.80;;
73150;SDS011;61354;50.758;6.106;2023-05-07T03:26:32;3.33;;;1.80;;
73150;SDS011;61354;50.758;6.106;2023-05-07T03:28:58;3.05;;;1.70;;
73150;SDS011;61354;50.758;6.106;2023-05-07T03:31:23;3.97;;;1.92;;
73150;SDS011;61354;50.758;6.106;2023-05-07T03:33:50;3.10;;;1.70;;
73150;SDS011;61354;50.758;6.106;2023-05-07T03:36:17;3.60;;;1.98;;
73150;SDS011;61354;50.758;6.106;2023-05-07T03:38:43;3.10;;;1.80;;
73150;SDS011;61354;50.758;6.106;2023-05-07T03:41:08;3.25;;;1.83;;
73150;SDS011;61354;50.758;6.106;2023-05-07T03:43:34;2.75;;;1.63;;
73150;SDS011;61354;50.758;6.106;2023-05-07T03:45:59;2.97;;;1.63;;
73150;SDS011;61354;50.758;6.106;2023-05-07T03:48:25;5.05;;;1.70;;
73150;SDS011;61354;50.758;6.106;2023-05-07T03:50:51;3.88;;;1.92;;
73150;SDS011;61354;50.758;6.106;2023-05-07T03:53:16;2.53;;;1.60;;
73150;SDS011;61354;50.758;6.106;2023-05-07T03:55:42;2.83;;;1.70;;
73150;SDS011;61354;50.758;6.106;2023-05-07T03:58:07;2.30;;;1.60;;
73150;SDS011;61354;50.758;6.106;2023-05-07T04:00:33;3.30;;;1.63;;
73150;SDS011;61354;50.758;6.106;2023-05-07T04:03:03;2.53;;;1.70;;
73150;SDS011;61354;50.758;6.106;2023-05-07T04:05:30;4.13;;;1.75;;
73150;SDS011;61354;50.758;6.106;2023-05-07T04:07:57;2.97;;;1.42;;
73150;SDS011;61354;50.758;6.106;2023-05-07T04:12:49;2.70;;;1.42;;
73150;SDS011;61354;50.758;6.106;2023-05-07T04:15:15;4.20;;;1.60;;
73150;SDS011;61354;50.758;6.106;2023-05-07T04:17:41;2.85;;;1.55;;
73150;SDS011;61354;50.758;6.106;2023-05-07T04:20:08;3.65;;;1.55;;
73150;SDS011;61354;50.758;6.106;2023-05-07T04:22:35;4.18;;;1.73;;
73150;SDS011;61354;50.758;6.106;2023-05-07T04:25:02;3.33;;;1.88;;
73150;SDS011;61354;50.758;6.106;2023-05-07T04:27:29;2.53;;;1.60;;
73150;SDS011;61354;50.758;6.106;2023-05-07T04:29:54;2.25;;;1.75;;
73150;SDS011;61354;50.758;6.106;2023-05-07T04:32:21;3.30;;;1.75;;
73150;SDS011;61354;50.758;6.106;2023-05-07T04:34:47;2.88;;;1.63;;
73150;SDS011;61354;50.758;6.106;2023-05-07T04:37:13;4.28;;;1.80;;
73150;SDS011;61354;50.758;6.106;2023-05-07T04:39:38;2.75;;;1.40;;
73150;SDS011;61354;50.758;6.106;2023-05-07T04:42:04;1.90;;;1.35;;
73150;SDS011;61354;50.758;6.106;2023-05-07T04:44:34;3.42;;;1.50;;
73150;SDS011;61354;50.758;6.106;2023-05-07T04:47:02;2.63;;;1.30;;
73150;SDS011;61354;50.758;6.106;2023-05-07T04:49:27;2.90;;;1.60;;
73150;SDS011;61354;50.758;6.106;2023-05-07T04:51:53;2.92;;;1.48;;
73150;SDS011;61354;50.758;6.106;2023-05-07T04:54:19;1.70;;;1.27;;
73150;SDS011;61354;50.758;6.106;2023-05-07T04:56:45;3.35;;;1.42;;
73150;SDS011;61354;50.758;6.106;2023-05-07T04:59:10;3.05;;;1.60;;
73150;SDS011;61354;50.758;6.106;2023-05-07T05:01:36;1.85;;;1.35;;
73150;SDS011;61354;50.758;6.106;2023-05-07T05:04:02;3.33;;;1.52;;
73150;SDS011;61354;50.758;6.106;2023-05-07T05:06:28;2.30;;;1.48;;
73150;SDS011;61354;50.758;6.106;2023-05-07T05:08:54;2.92;;;1.40;;
73150;SDS011;61354;50.758;6.106;2023-05-07T05:11:20;2.22;;;1.40;;
73150;SDS011;61354;50.758;6.106;2023-05-07T05:13:46;2.25;;;1.40;;
73150;SDS011;61354;50.758;6.106;2023-05-07T05:16:14;2.53;;;1.42;;
73150;SDS011;61354;50.758;6.106;2023-05-07T05:18:39;2.35;;;1.40;;
73150;SDS011;61354;50.758;6.106;2023-05-07T05:21:05;3.35;;;1.65;;
73150;SDS011;61354;50.758;6.106;2023-05-07T05:23:31;3.85;;;1.77;;
73150;SDS011;61354;50.758;6.106;2023-05-07T05:25:57;3.45;;;1.77;;
73150;SDS011;61354;50.758;6.106;2023-05-07T05:28:23;2.72;;;1.73;;
73150;SDS011;61354;50.758;6.106;2023-05-07T05:30:49;4.22;;;1.85;;
73150;SDS011;61354;50.758;6.106;2023-05-07T05:33:15;3.40;;;2.10;;
73150;SDS011;61354;50.758;6.106;2023-05-07T05:35:41;4.85;;;2.20;;
73150;SDS011;61354;50.758;6.106;2023-05-07T05:38:06;2.90;;;1.80;;
73150;SDS011;61354;50.758;6.106;2023-05-07T05:40:32;2.65;;;1.70;;
73150;SDS011;61354;50.758;6.106;2023-05-07T05:42:58;3.58;;;2.10;;
73150;SDS011;61354;50.758;6.106;2023-05-07T05:45:24;3.30;;;1.65;;
73150;SDS011;61354;50.758;6.106;2023-05-07T05:47:50;3.35;;;1.83;;
73150;SDS011;61354;50.758;6.106;2023-05-07T05:50:15;3.20;;;1.75;;
73150;SDS011;61354;50.758;6.106;2023-05-07T05:55:09;3.05;;;1.88;;
73150;SDS011;61354;50.758;6.106;2023-05-07T05:57:34;4.47;;;2.17;;
73150;SDS011;61354;50.758;6.106;2023-05-07T06:00:01;3.13;;;2.10;;
73150;SDS011;61354;50.758;6.106;2023-05-07T06:02:27;4.03;;;2.28;;
73150;SDS011;61354;50.758;6.106;2023-05-07T06:04:53;4.93;;;2.03;;
73150;SDS011;61354;50.758;6.106;2023-05-07T06:07:19;3.20;;;2.15;;
73150;SDS011;61354;50.758;6.106;2023-05-07T06:09:44;3.22;;;1.90;;
73150;SDS011;61354;50.758;6.106;2023-05-07T06:12:11;4.05;;;2.03;;
73150;SDS011;61354;50.758;6.106;2023-05-07T06:14:37;2.60;;;1.98;;
73150;SDS011;61354;50.758;6.106;2023-05-07T06:17:02;4.03;;;2.45;;
73150;SDS011;61354;50.758;6.106;2023-05-07T06:19:28;3.72;;;2.20;;
73150;SDS011;61354;50.758;6.106;2023-05-07T06:21:54;3.50;;;2.05;;
73150;SDS011;61354;50.758;6.106;2023-05-07T06:24:21;4.00;;;2.17;;
73150;SDS011;61354;50.758;6.106;2023-05-07T06:26:47;3.22;;;2.10;;
73150;SDS011;61354;50.758;6.106;2023-05-07T06:29:13;4.90;;;2.28;;
73150;SDS011;61354;50.758;6.106;2023-05-07T06:31:38;5.88;;;2.45;;
73150;SDS011;61354;50.758;6.106;2023-05-07T06:34:04;3.53;;;2.03;;
73150;SDS011;61354;50.758;6.106;2023-05-07T06:36:30;4.03;;;2.20;;
73150;SDS011;61354;50.758;6.106;2023-05-07T06:38:55;4.55;;;2.28;;
73150;SDS011;61354;50.758;6.106;2023-05-07T06:41:21;4.30;;;2.35;;
73150;SDS011;61354;50.758;6.106;2023-05-07T06:43:47;3.83;;;2.13;;
73150;SDS011;61354;50.758;6.106;2023-05-07T06:46:12;3.80;;;2.20;;
73150;SDS011;61354;50.758;6.106;2023-05-07T06:48:38;4.68;;;2.92;;
73150;SDS011;61354;50.758;6.106;2023-05-07T06:51:03;3.72;;;2.22;;
73150;SDS011;61354;50.758;6.106;2023-05-07T06:53:29;3.60;;;2.30;;
73150;SDS011;61354;50.758;6.106;2023-05-07T06:55:56;4.25;;;2.13;;
73150;SDS011;61354;50.758;6.106;2023-05-07T06:58:22;3.80;;;2.50;;
73150;SDS011;61354;50.758;6.106;2023-05-07T07:00:48;4.93;;;2.70;;
73150;SDS011;61354;50.758;6.106;2023-05-07T07:03:13;4.38;;;2.72;;
73150;SDS011;61354;50.758;6.106;2023-05-07T07:05:42;3.45;;;2.35;;
73150;SDS011;61354;50.758;6.106;2023-05-07T07:08:09;4.88;;;3.00;;
73150;SDS011;61354;50.758;6.106;2023-05-07T07:10:35;5.55;;;2.97;;
73150;SDS011;61354;50.758;6.106;2023-05-07T07:13:01;5.70;;;2.95;;
73150;SDS011;61354;50.758;6.106;2023-05-07T07:15:26;4.15;;;2.63;;
73150;SDS011;61354;50.758;6.106;2023-05-07T07:17:52;5.53;;;3.13;;
73150;SDS011;61354;50.758;6.106;2023-05-07T07:20:17;5.28;;;3.03;;
73150;SDS011;61354;50.758;6.106;2023-05-07T07:22:43;5.20;;;3.05;;
73150;SDS011;61354;50.758;6.106;2023-05-07T07:25:08;7.72;;;3.33;;
73150;SDS011;61354;50.758;6.106;2023-05-07T07:27:36;4.35;;;2.65;;
73150;SDS011;61354;50.758;6.106;2023-05-07T07:30:02;5.50;;;3.38;;
73150;SDS011;61354;50.758;6.106;2023-05-07T07:32:27;4.70;;;3.00;;
73150;SDS011;61354;50.758;6.106;2023-05-07T07:34:53;4.55;;;2.45;;
73150;SDS011;61354;50.758;6.106;2023-05-07T07:37:19;4.35;;;2.30;;
73150;SDS011;61354;50.758;6.106;2023-05-07T07:39:44;4.20;;;1.90;;
73150;SDS011;61354;50.758;6.106;2023-05-07T07:42:10;3.72;;;2.17;;
73150;SDS011;61354;50.758;6.106;2023-05-07T07:44:35;4.60;;;1.98;;
73150;SDS011;61354;50.758;6.106;2023-05-07T07:47:01;3.72;;;1.80;;
73150;SDS011;61354;50.758;6.106;2023-05-07T07:49:27;3.03;;;2.05;;
73150;SDS011;61354;50.758;6.106;2023-05-07T07:51:52;2.80;;;1.90;;
73150;SDS011;61354;50.758;6.106;2023-05-07T07:54:18;4.00;;;2.00;;
73150;SDS011;61354;50.758;6.106;2023-05-07T07:56:43;4.25;;;2.03;;
73150;SDS011;61354;50.758;6.106;2023-05-07T07:59:09;4.50;;;1.83;;
73150;SDS011;61354;50.758;6.106;2023-05-07T08:01:35;4.18;;;2.10;;
73150;SDS011;61354;50.758;6.106;2023-05-07T08:04:00;2.78;;;1.67;;
73150;SDS011;61354;50.758;6.106;2023-05-07T08:06:28;5.10;;;2.10;;
73150;SDS011;61354;50.758;6.106;2023-05-07T08:08:55;3.13;;;1.70;;
73150;SDS011;61354;50.758;6.106;2023-05-07T08:11:20;5.43;;;2.60;;
73150;SDS011;61354;50.758;6.106;2023-05-07T08:13:46;6.35;;;2.28;;
73150;SDS011;61354;50.758;6.106;2023-05-07T08:16:12;4.22;;;1.80;;
73150;SDS011;61354;50.758;6.106;2023-05-07T08:18:38;2.90;;;1.58;;
73150;SDS011;61354;50.758;6.106;2023-05-07T08:21:04;4.65;;;1.67;;
73150;SDS011;61354;50.758;6.106;2023-05-07T08:23:30;2.33;;;1.42;;
73150;SDS011;61354;50.758;6.106;2023-05-07T08:25:55;2.95;;;1.40;;
73150;SDS011;61354;50.758;6.106;2023-05-07T08:28:21;2.67;;;1.40;;
73150;SDS011;61354;50.758;6.106;2023-05-07T08:30:47;2.20;;;1.30;;
73150;SDS011;61354;50.758;6.106;2023-05-07T08:33:13;2.35;;;1.45;;
73150;SDS011;61354;50.758;6.106;2023-05-07T08:35:38;3.53;;;1.60;;
73150;SDS011;61354;50.758;6.106;2023-05-07T08:38:04;2.15;;;1.38;;
73150;SDS011;61354;50.758;6.106;2023-05-07T08:40:30;3.70;;;1.35;;
73150;SDS011;61354;50.758;6.106;2023-05-07T08:43:02;2.72;;;1.60;;
73150;SDS011;61354;50.758;6.106;2023-05-07T08:45:28;4.60;;;2.10;;
73150;SDS011;61354;50.758;6.106;2023-05-07T08:47:58;2.75;;;1.30;;
73150;SDS011;61354;50.758;6.106;2023-05-07T08:50:25;3.22;;;1.50;;
73150;SDS011;61354;50.758;6.106;2023-05-07T08:52:50;3.28;;;1.52;;
73150;SDS011;61354;50.758;6.106;2023-05-07T08:55:16;3.72;;;1.35;;
73150;SDS011;61354;50.758;6.106;2023-05-07T08:57:42;3.55;;;1.45;;
73150;SDS011;61354;50.758;6.106;2023-05-07T09:00:08;2.83;;;1.40;;
73150;SDS011;61354;50.758;6.106;2023-05-07T09:02:35;2.15;;;1.40;;
73150;SDS011;61354;50.758;6.106;2023-05-07T09:05:01;3.42;;;1.60;;
73150;SDS011;61354;50.758;6.106;2023-05-07T09:07:27;3.63;;;1.70;;
73150;SDS011;61354;50.758;6.106;2023-05-07T09:09:53;2.85;;;1.60;;
73150;SDS011;61354;50.758;6.106;2023-05-07T09:12:21;2.67;;;1.40;;
73150;SDS011;61354;50.758;6.106;2023-05-07T09:14:46;3.85;;;1.50;;
73150;SDS011;61354;50.758;6.106;2023-05-07T09:17:13;2.92;;;1.58;;
73150;SDS011;61354;50.758;6.106;2023-05-07T09:19:38;3.88;;;1.83;;
73150;SDS011;61354;50.758;6.106;2023-05-07T09:22:04;3.35;;;1.50;;
73150;SDS011;61354;50.758;6.106;2023-05-07T09:24:32;2.72;;;1.75;;
73150;SDS011;61354;50.758;6.106;2023-05-07T09:27:03;3.25;;;1.40;;
73150;SDS011;61354;50.758;6.106;2023-05-07T09:29:29;2.92;;;1.35;;
73150;SDS011;61354;50.758;6.106;2023-05-07T09:32:00;2.67;;;1.60;;
73150;SDS011;61354;50.758;6.106;2023-05-07T09:34:30;3.97;;;1.58;;
73150;SDS011;61354;50.758;6.106;2023-05-07T09:36:56;3.38;;;1.85;;
73150;SDS011;61354;50.758;6.106;2023-05-07T09:39:24;2.50;;;1.40;;
73150;SDS011;61354;50.758;6.106;2023-05-07T09:41:50;3.88;;;1.75;;
73150;SDS011;61354;50.758;6.106;2023-05-07T09:44:17;3.50;;;1.70;;
73150;SDS011;61354;50.758;6.106;2023-05-07T09:46:43;3.80;;;1.75;;
73150;SDS011;61354;50.758;6.106;2023-05-07T09:49:20;2.35;;;1.52;;
73150;SDS011;61354;50.758;6.106;2023-05-07T09:51:50;3.08;;;1.75;;
73150;SDS011;61354;50.758;6.106;2023-05-07T09:54:17;2.90;;;1.50;;
73150;SDS011;61354;50.758;6.106;2023-05-07T09:56:50;2.90;;;1.50;;
73150;SDS011;61354;50.758;6.106;2023-05-07T09:59:17;2.67;;;1.63;;
73150;SDS011;61354;50.758;6.106;2023-05-07T10:01:44;2.85;;;1.55;;
73150;SDS011;61354;50.758;6.106;2023-05-07T10:04:10;2.72;;;1.58;;
73150;SDS011;61354;50.758;6.106;2023-05-07T10:06:36;2.95;;;1.45;;
73150;SDS011;61354;50.758;6.106;2023-05-07T10:09:03;4.90;;;2.20;;
73150;SDS011;61354;50.758;6.106;2023-05-07T10:11:33;4.70;;;2.08;;
73150;SDS011;61354;50.758;6.106;2023-05-07T10:13:59;4.35;;;1.75;;
73150;SDS011;61354;50.758;6.106;2023-05-07T10:16:27;3.63;;;2.22;;
73150;SDS011;61354;50.758;6.106;2023-05-07T10:18:57;4.10;;;2.10;;
73150;SDS011;61354;50.758;6.106;2023-05-07T10:21:23;3.40;;;1.98;;
73150;SDS011;61354;50.758;6.106;2023-05-07T10:23:51;3.60;;;1.80;;
73150;SDS011;61354;50.758;6.106;2023-05-07T10:26:25;3.35;;;1.75;;
73150;SDS011;61354;50.758;6.106;2023-05-07T10:28:55;3.38;;;1.65;;
73150;SDS011;61354;50.758;6.106;2023-05-07T10:34:44;4.28;;;1.67;;
73150;SDS011;61354;50.758;6.106;2023-05-07T10:37:12;3.05;;;1.55;;
73150;SDS011;61354;50.758;6.106;2023-05-07T10:39:38;2.78;;;1.73;;
73150;SDS011;61354;50.758;6.106;2023-05-07T10:42:11;2.70;;;1.60;;
73150;SDS011;61354;50.758;6.106;2023-05-07T10:44:38;3.28;;;1.83;;
73150;SDS011;61354;50.758;6.106;2023-05-07T10:49:35;3.47;;;1.45;;
73150;SDS011;61354;50.758;6.106;2023-05-07T10:52:10;3.10;;;1.45;;
73150;SDS011;61354;50.758;6.106;2023-05-07T10:54:38;4.88;;;1.90;;
73150;SDS011;61354;50.758;6.106;2023-05-07T11:05:30;2.60;;;1.35;;
73150;SDS011;61354;50.758;6.106;2023-05-07T11:08:01;2.67;;;1.60;;
73150;SDS011;61354;50.758;6.106;2023-05-07T11:13:18;2.88;;;1.55;;
73150;SDS011;61354;50.758;6.106;2023-05-07T11:16:05;2.38;;;1.40;;
73150;SDS011;61354;50.758;6.106;2023-05-07T11:18:51;2.92;;;1.73;;
73150;SDS011;61354;50.758;6.106;2023-05-07T11:26:41;5.80;;;2.13;;
73150;SDS011;61354;50.758;6.106;2023-05-07T11:29:14;3.50;;;1.70;;
73150;SDS011;61354;50.758;6.106;2023-05-07T11:31:44;4.53;;;1.70;;
73150;SDS011;61354;50.758;6.106;2023-05-07T11:34:14;2.85;;;1.73;;
73150;SDS011;61354;50.758;6.106;2023-05-07T11:36:45;4.53;;;1.90;;
73150;SDS011;61354;50.758;6.106;2023-05-07T11:39:23;4.97;;;2.22;;
73150;SDS011;61354;50.758;6.106;2023-05-07T11:41:49;3.05;;;1.85;;
73150;SDS011;61354;50.758;6.106;2023-05-07T11:44:18;4.30;;;1.77;;
73150;SDS011;61354;50.758;6.106;2023-05-07T11:46:44;3.42;;;1.92;;
73150;SDS011;61354;50.758;6.106;2023-05-07T11:49:10;5.80;;;2.70;;
73150;SDS011;61354;50.758;6.106;2023-05-07T11:51:36;3.80;;;2.00;;
73150;SDS011;61354;50.758;6.106;2023-05-07T11:54:03;4.65;;;2.20;;
73150;SDS011;61354;50.758;6.106;2023-05-07T11:56:34;4.88;;;2.00;;
73150;SDS011;61354;50.758;6.106;2023-05-07T11:59:00;3.30;;;1.92;;
73150;SDS011;61354;50.758;6.106;2023-05-07T12:01:26;3.58;;;2.17;;
73150;SDS011;61354;50.758;6.106;2023-05-07T12:03:52;4.65;;;2.08;;
73150;SDS011;61354;50.758;6.106;2023-05-07T12:06:17;4.22;;;2.00;;
73150;SDS011;61354;50.758;6.106;2023-05-07T12:08:44;4.97;;;2.75;;
73150;SDS011;61354;50.758;6.106;2023-05-07T12:11:18;4.95;;;2.40;;
73150;SDS011;61354;50.758;6.106;2023-05-07T12:13:48;3.95;;;2.35;;
73150;SDS011;61354;50.758;6.106;2023-05-07T12:16:13;4.90;;;2.58;;
73150;SDS011;61354;50.758;6.106;2023-05-07T12:18:39;5.18;;;2.47;;
73150;SDS011;61354;50.758;6.106;2023-05-07T12:21:05;4.60;;;3.08;;
73150;SDS011;61354;50.758;6.106;2023-05-07T12:23:32;7.85;;;4.00;;
73150;SDS011;61354;50.758;6.106;2023-05-07T12:26:01;6.35;;;3.88;;
73150;SDS011;61354;50.758;6.106;2023-05-07T12:28:27;5.25;;;3.60;;
73150;SDS011;61354;50.758;6.106;2023-05-07T12:30:53;8.35;;;5.15;;
73150;SDS011;61354;50.758;6.106;2023-05-07T12:33:23;8.90;;;5.22;;
73150;SDS011;61354;50.758;6.106;2023-05-07T12:35:50;7.82;;;5.05;;
73150;SDS011;61354;50.758;6.106;2023-05-07T12:38:16;9.25;;;5.85;;
73150;SDS011;61354;50.758;6.106;2023-05-07T12:40:44;8.85;;;5.05;;
73150;SDS011;61354;50.758;6.106;2023-05-07T12:43:28;8.82;;;5.80;;
73150;SDS011;61354;50.758;6.106;2023-05-07T12:45:55;10.23;;;5.70;;
73150;SDS011;61354;50.758;6.106;2023-05-07T12:48:22;7.55;;;4.95;;
73150;SDS011;61354;50.758;6.106;2023-05-07T12:50:49;8.75;;;5.78;;
73150;SDS011;61354;50.758;6.106;2023-05-07T12:53:16;8.27;;;5.72;;
73150;SDS011;61354;50.758;6.106;2023-05-07T12:55:42;8.55;;;5.55;;
73150;SDS011;61354;50.758;6.106;2023-05-07T13:00:41;7.43;;;5.45;;
73150;SDS011;61354;50.758;6.106;2023-05-07T13:03:08;9.15;;;6.18;;
73150;SDS011;61354;50.758;6.106;2023-05-07T13:05:35;8.27;;;5.97;;
73150;SDS011;61354;50.758;6.106;2023-05-07T13:08:01;8.32;;;5.88;;
73150;SDS011;61354;50.758;6.106;2023-05-07T13:10:26;8.18;;;5.90;;
73150;SDS011;61354;50.758;6.106;2023-05-07T13:12:52;9.60;;;5.72;;
73150;SDS011;61354;50.758;6.106;2023-05-07T13:15:18;8.88;;;5.35;;
73150;SDS011;61354;50.758;6.106;2023-05-07T13:17:44;9.02;;;5.82;;
73150;SDS011;61354;50.758;6.106;2023-05-07T13:20:10;9.20;;;5.50;;
73150;SDS011;61354;50.758;6.106;2023-05-07T13:22:36;8.25;;;5.93;;
73150;SDS011;61354;50.758;6.106;2023-05-07T13:25:02;8.00;;;5.32;;
73150;SDS011;61354;50.758;6.106;2023-05-07T13:27:28;10.93;;;5.72;;
73150;SDS011;61354;50.758;6.106;2023-05-07T13:29:56;8.65;;;5.00;;
73150;SDS011;61354;50.758;6.106;2023-05-07T13:32:21;8.55;;;5.13;;
73150;SDS011;61354;50.758;6.106;2023-05-07T13:34:47;8.35;;;4.93;;
73150;SDS011;61354;50.758;6.106;2023-05-07T13:37:13;9.80;;;5.88;;
73150;SDS011;61354;50.758;6.106;2023-05-07T13:39:38;6.85;;;5.80;;
73150;SDS011;61354;50.758;6.106;2023-05-07T13:42:04;7.43;;;4.82;;
73150;SDS011;61354;50.758;6.106;2023-05-07T13:44:30;8.10;;;5.00;;
73150;SDS011;61354;50.758;6.106;2023-05-07T13:46:55;6.78;;;4.88;;
73150;SDS011;61354;50.758;6.106;2023-05-07T13:49:21;7.80;;;5.32;;
73150;SDS011;61354;50.758;6.106;2023-05-07T13:51:46;6.95;;;4.80;;
73150;SDS011;61354;50.758;6.106;2023-05-07T13:54:12;8.45;;;4.80;;
73150;SDS011;61354;50.758;6.106;2023-05-07T13:56:37;8.00;;;5.65;;
73150;SDS011;61354;50.758;6.106;2023-05-07T13:59:03;9.63;;;5.20;;
73150;SDS011;61354;50.758;6.106;2023-05-07T14:01:29;8.60;;;5.57;;
73150;SDS011;61354;50.758;6.106;2023-05-07T14:03:56;8.95;;;5.70;;
73150;SDS011;61354;50.758;6.106;2023-05-07T14:06:24;6.43;;;5.20;;
73150;SDS011;61354;50.758;6.106;2023-05-07T14:08:50;8.82;;;5.13;;
73150;SDS011;61354;50.758;6.106;2023-05-07T14:11:16;9.05;;;5.47;;
73150;SDS011;61354;50.758;6.106;2023-05-07T14:13:41;6.63;;;4.68;;
73150;SDS011;61354;50.758;6.106;2023-05-07T14:16:07;7.50;;;4.85;;
73150;SDS011;61354;50.758;6.106;2023-05-07T14:18:33;8.57;;;5.53;;
73150;SDS011;61354;50.758;6.106;2023-05-07T14:20:59;5.75;;;3.92;;
73150;SDS011;61354;50.758;6.106;2023-05-07T14:23:25;8.18;;;3.90;;
73150;SDS011;61354;50.758;6.106;2023-05-07T14:25:54;5.30;;;3.40;;
73150;SDS011;61354;50.758;6.106;2023-05-07T14:28:21;5.97;;;3.28;;
73150;SDS011;61354;50.758;6.106;2023-05-07T14:30:47;5.82;;;3.13;;
73150;SDS011;61354;50.758;6.106;2023-05-07T14:33:13;5.20;;;3.25;;
73150;SDS011;61354;50.758;6.106;2023-05-07T14:35:39;5.05;;;3.20;;
73150;SDS011;61354;50.758;6.106;2023-05-07T14:38:04;4.00;;;3.03;;
73150;SDS011;61354;50.758;6.106;2023-05-07T14:40:30;6.68;;;3.08;;
73150;SDS011;61354;50.758;6.106;2023-05-07T14:42:56;7.22;;;3.10;;
73150;SDS011;61354;50.758;6.106;2023-05-07T14:45:22;5.13;;;3.33;;
73150;SDS011;61354;50.758;6.106;2023-05-07T14:47:48;5.35;;;3.10;;
73150;SDS011;61354;50.758;6.106;2023-05-07T14:50:13;5.05;;;2.80;;
73150;SDS011;61354;50.758;6.106;2023-05-07T14:52:39;4.80;;;3.10;;
73150;SDS011;61354;50.758;6.106;2023-05-07T14:55:04;7.20;;;3.72;;
73150;SDS011;61354;50.758;6.106;2023-05-07T14:57:31;5.40;;;2.83;;
73150;SDS011;61354;50.758;6.106;2023-05-07T15:00:00;6.65;;;3.85;;
73150;SDS011;61354;50.758;6.106;2023-05-07T15:02:29;4.93;;;2.97;;
73150;SDS011;61354;50.758;6.106;2023-05-07T15:04:55;7.05;;;3.15;;
73150;SDS011;61354;50.758;6.106;2023-05-07T15:07:21;5.10;;;3.10;;
73150;SDS011;61354;50.758;6.106;2023-05-07T15:09:46;7.50;;;3.40;;
73150;SDS011;61354;50.758;6.106;2023-05-07T15:12:12;5.90;;;3.50;;
73150;SDS011;61354;50.758;6.106;2023-05-07T15:14:38;4.85;;;3.30;;